Time;durP1;ratioP1;P1;durP2;ratioP2;P2;SDS_P1;SDS_P2;PMS_P1;PMS_P2;Temp;Humidity;BMP_temperature;BMP_pressure;BME280_temperature;BME280_humidity;BME280_pressure;Samples;Min_cycle;Max_cycle;Signal;HPM_P1;HPM_P2
2023/05/23 00:01:44;;;;;;;15.98;14.35;;;17.70;99.90;;;;;;932211;149;27836;-76
2023/05/23 00:04:15;;;;;;;15.75;14.10;;;17.70;99.90;;;;;;934309;149;27337;-76
2023/05/23 00:06:37;;;;;;;17.85;15.35;;;17.70;99.90;;;;;;911814;153;27269;-76
2023/05/23 00:09:03;;;;;;;16.37;14.78;;;17.70;99.90;;;;;;927039;151;27393;-75
2023/05/23 00:11:30;;;;;;;16.70;14.90;;;17.70;99.90;;;;;;926616;152;27402;-75
2023/05/23 00:13:59;;;;;;;17.12;15.43;;;17.80;99.90;;;;;;934668;149;27263;-75
2023/05/23 00:16:24;;;;;;;17.17;15.32;;;17.80;99.90;;;;;;911123;153;27951;-76
2023/05/23 00:18:50;;;;;;;18.92;15.80;;;17.80;99.90;;;;;;927002;151;27388;-75
2023/05/23 00:21:16;;;;;;;19.12;17.02;;;17.80;99.90;;;;;;926507;152;27431;-76
2023/05/23 00:23:43;;;;;;;17.50;15.63;;;17.80;99.90;;;;;;927768;151;27514;-75
2023/05/23 00:26:10;;;;;;;16.90;15.23;;;17.80;99.90;;;;;;927237;152;27345;-75
2023/05/23 00:28:39;;;;;;;16.93;15.03;;;17.80;99.90;;;;;;927082;152;27445;-75
2023/05/23 00:31:06;;;;;;;15.78;14.28;;;17.80;99.90;;;;;;935042;149;27377;-75
2023/05/23 00:33:33;;;;;;;15.93;14.23;;;17.80;99.90;;;;;;918162;152;27480;-76
2023/05/23 00:35:59;;;;;;;17.60;15.70;;;17.80;99.90;;;;;;934253;149;27357;-76
2023/05/23 00:38:27;;;;;;;18.30;16.32;;;17.80;99.90;;;;;;933305;149;27330;-76
2023/05/23 00:40:52;;;;;;;19.50;17.50;;;17.80;99.90;;;;;;911305;152;27337;-75
2023/05/23 00:43:21;;;;;;;18.45;16.45;;;17.80;99.90;;;;;;933834;149;27377;-76
2023/05/23 00:45:46;;;;;;;20.27;17.98;;;17.80;99.90;;;;;;934295;149;27379;-76
2023/05/23 00:48:12;;;;;;;18.32;15.30;;;17.80;99.90;;;;;;933028;149;27316;-75
2023/05/23 00:50:39;;;;;;;20.05;17.92;;;17.80;99.90;;;;;;934854;149;27334;-75
2023/05/23 00:53:05;;;;;;;20.02;17.82;;;17.80;99.90;;;;;;928128;150;27459;-75
2023/05/23 00:55:32;;;;;;;18.65;16.65;;;17.80;99.90;;;;;;933392;150;27358;-75
2023/05/23 00:57:58;;;;;;;18.85;16.85;;;17.80;99.90;;;;;;934803;150;27326;-75
2023/05/23 01:00:25;;;;;;;19.50;17.40;;;17.80;99.90;;;;;;934518;149;27338;-76
2023/05/23 01:02:52;;;;;;;20.05;17.55;;;17.70;99.90;;;;;;934602;150;27306;-76
2023/05/23 01:05:18;;;;;;;19.30;16.87;;;17.70;99.90;;;;;;934643;149;27752;-76
2023/05/23 01:07:45;;;;;;;19.80;17.67;;;17.70;99.90;;;;;;934416;149;27326;-75
2023/05/23 01:10:11;;;;;;;19.52;17.52;;;17.70;99.90;;;;;;933925;149;27377;-75
2023/05/23 01:12:44;;;;;;;21.02;18.75;;;17.60;99.90;;;;;;934336;149;27309;-75
2023/05/23 01:15:10;;;;;;;20.43;18.42;;;17.60;99.90;;;;;;934529;149;27370;-76
2023/05/23 01:17:46;;;;;;;20.17;18.07;;;17.60;99.90;;;;;;935005;149;27326;-76
2023/05/23 01:20:12;;;;;;;20.92;18.75;;;17.60;99.90;;;;;;935042;149;27345;-76
2023/05/23 01:22:54;;;;;;;21.77;16.30;;;17.60;99.90;;;;;;927166;150;27481;-76
2023/05/23 01:25:45;;;;;;;18.50;16.62;;;17.60;99.90;;;;;;944131;148;27368;-75
2023/05/23 01:28:11;;;;;;;20.02;17.27;;;17.60;99.90;;;;;;944846;148;27448;-76
2023/05/23 01:30:38;;;;;;;21.27;17.00;;;17.60;99.90;;;;;;937611;148;27449;-76
2023/05/23 01:33:05;;;;;;;19.75;17.75;;;17.60;99.90;;;;;;945097;148;27395;-76
2023/05/23 01:35:31;;;;;;;20.12;18.12;;;17.60;99.90;;;;;;924725;150;27404;-76
2023/05/23 01:37:58;;;;;;;20.48;18.20;;;17.60;99.90;;;;;;929198;150;27408;-76
2023/05/23 01:40:24;;;;;;;20.65;17.92;;;17.60;99.90;;;;;;927971;150;27331;-76
2023/05/23 01:42:54;;;;;;;20.37;18.32;;;17.60;99.90;;;;;;945331;148;27273;-76
2023/05/23 01:45:20;;;;;;;19.52;17.52;;;17.60;99.90;;;;;;944474;148;27432;-75
2023/05/23 01:47:50;;;;;;;19.27;17.27;;;17.60;99.90;;;;;;945332;148;27372;-75
2023/05/23 01:50:17;;;;;;;19.17;17.15;;;17.60;99.90;;;;;;945863;148;27461;-75
2023/05/23 01:52:43;;;;;;;16.12;14.47;;;17.60;99.90;;;;;;944993;148;27444;-76
2023/05/23 01:55:10;;;;;;;18.92;16.95;;;17.60;99.90;;;;;;944916;148;27304;-76
2023/05/23 01:57:36;;;;;;;19.10;17.25;;;17.60;99.90;;;;;;926137;150;27361;-76
2023/05/23 02:00:06;;;;;;;19.35;17.32;;;17.60;99.90;;;;;;929035;150;27521;-76
2023/05/23 02:02:32;;;;;;;18.48;16.70;;;17.60;99.90;;;;;;944947;148;27331;-76
2023/05/23 02:04:59;;;;;;;21.02;18.87;;;17.60;99.90;;;;;;922469;151;27323;-76
2023/05/23 02:07:26;;;;;;;18.60;16.67;;;17.70;99.90;;;;;;928228;151;27325;-76
2023/05/23 02:09:52;;;;;;;18.25;16.35;;;17.70;99.90;;;;;;928036;151;27571;-76
2023/05/23 02:12:19;;;;;;;17.40;15.68;;;17.80;99.90;;;;;;926254;151;27714;-76
2023/05/23 02:14:45;;;;;;;17.17;15.58;;;17.80;99.90;;;;;;945038;148;27284;-76
2023/05/23 02:17:13;;;;;;;19.12;16.37;;;17.80;99.90;;;;;;938269;148;27369;-76
2023/05/23 02:19:39;;;;;;;16.50;15.00;;;17.90;99.90;;;;;;945271;148;27375;-75
2023/05/23 02:22:05;;;;;;;17.87;16.15;;;17.90;99.90;;;;;;940949;148;27355;-76
2023/05/23 02:24:32;;;;;;;18.30;16.50;;;17.90;99.90;;;;;;946229;148;27449;-76
2023/05/23 02:26:58;;;;;;;16.75;14.93;;;17.90;99.90;;;;;;930446;151;27325;-75
2023/05/23 02:29:25;;;;;;;16.17;14.63;;;18.00;99.90;;;;;;941491;149;27450;-75
2023/05/23 02:31:51;;;;;;;16.50;14.90;;;18.00;99.90;;;;;;947396;148;27456;-76
2023/05/23 02:34:18;;;;;;;16.82;15.32;;;18.10;99.90;;;;;;946664;149;27300;-75
2023/05/23 02:36:45;;;;;;;16.42;14.93;;;18.10;99.90;;;;;;931569;151;27390;-75
2023/05/23 02:39:12;;;;;;;17.62;15.90;;;18.10;99.90;;;;;;947809;148;27342;-76
2023/05/23 02:41:38;;;;;;;18.52;16.77;;;18.20;99.90;;;;;;941536;149;27385;-75
2023/05/23 02:44:04;;;;;;;19.05;17.12;;;18.20;99.90;;;;;;946905;149;27412;-76
2023/05/23 02:46:31;;;;;;;19.05;17.15;;;18.30;99.90;;;;;;946995;148;27364;-75
2023/05/23 02:48:58;;;;;;;19.75;17.70;;;18.30;99.90;;;;;;950515;148;27335;-75
2023/05/23 02:51:25;;;;;;;18.82;17.10;;;18.30;99.90;;;;;;929154;151;27356;-76
2023/05/23 02:53:51;;;;;;;20.48;18.37;;;18.40;99.90;;;;;;947262;149;27361;-75
2023/05/23 02:56:17;;;;;;;21.12;19.17;;;18.40;99.90;;;;;;947418;148;27371;-75
2023/05/23 02:58:44;;;;;;;21.73;19.48;;;18.50;99.90;;;;;;929591;150;27360;-75
2023/05/23 03:01:11;;;;;;;20.97;18.77;;;18.50;99.90;;;;;;944925;148;27328;-75
2023/05/23 03:03:37;;;;;;;21.23;19.12;;;18.50;99.90;;;;;;947467;148;27356;-75
2023/05/23 03:06:09;;;;;;;20.72;18.70;;;18.50;99.90;;;;;;932215;151;27390;-75
2023/05/23 03:08:33;;;;;;;21.50;19.40;;;18.50;99.90;;;;;;948313;150;27400;-75
2023/05/23 03:10:59;;;;;;;22.30;20.08;;;18.40;99.90;;;;;;946876;148;27331;-75
2023/05/23 03:13:26;;;;;;;20.97;18.92;;;18.40;99.90;;;;;;927836;152;27404;-76
2023/05/23 03:15:53;;;;;;;20.57;18.57;;;18.40;99.90;;;;;;930128;151;27354;-75
2023/05/23 03:18:19;;;;;;;20.10;18.23;;;18.40;99.90;;;;;;947964;148;27261;-75
2023/05/23 03:20:46;;;;;;;19.48;17.65;;;18.40;99.90;;;;;;932629;151;27733;-75
2023/05/23 03:23:12;;;;;;;20.35;18.35;;;18.40;99.90;;;;;;947405;148;27465;-75
2023/05/23 03:25:39;;;;;;;19.02;17.30;;;18.30;99.90;;;;;;918875;152;27536;-75
2023/05/23 03:28:06;;;;;;;20.27;18.25;;;18.30;99.90;;;;;;919728;153;27447;-75
2023/05/23 03:30:32;;;;;;;19.73;17.73;;;18.40;99.90;;;;;;934048;150;27397;-75
2023/05/23 03:32:59;;;;;;;19.50;17.55;;;18.40;99.90;;;;;;912675;153;27384;-76
2023/05/23 03:35:25;;;;;;;20.27;18.27;;;18.40;99.90;;;;;;911692;152;27419;-75
2023/05/23 03:37:52;;;;;;;20.80;18.90;;;18.30;99.90;;;;;;934610;149;27326;-75
2023/05/23 03:40:19;;;;;;;19.37;17.50;;;18.30;99.90;;;;;;928166;150;27353;-75
2023/05/23 03:42:45;;;;;;;19.05;17.15;;;18.30;99.90;;;;;;918225;152;27335;-75
2023/05/23 03:45:12;;;;;;;20.15;18.40;;;18.30;99.90;;;;;;932013;149;27333;-75
2023/05/23 03:47:38;;;;;;;19.05;17.32;;;18.20;99.90;;;;;;935211;149;27416;-75
2023/05/23 03:50:05;;;;;;;18.20;16.48;;;18.20;99.90;;;;;;912483;153;27347;-75
2023/05/23 03:52:32;;;;;;;19.23;17.30;;;18.20;99.90;;;;;;927272;152;27326;-75
2023/05/23 03:54:58;;;;;;;19.45;17.55;;;18.20;99.90;;;;;;926605;152;27379;-75
2023/05/23 03:57:25;;;;;;;18.27;16.55;;;18.20;99.90;;;;;;927479;152;27677;-75
2023/05/23 03:59:51;;;;;;;17.62;15.68;;;18.10;99.90;;;;;;935599;149;27334;-75
2023/05/23 04:02:18;;;;;;;17.17;15.48;;;18.10;99.90;;;;;;934783;149;27316;-75
2023/05/23 04:04:45;;;;;;;16.90;15.35;;;18.10;99.90;;;;;;912057;153;27443;-75
2023/05/23 04:07:11;;;;;;;17.17;15.58;;;18.10;99.90;;;;;;911789;153;27379;-75
2023/05/23 04:09:38;;;;;;;17.40;15.85;;;18.00;99.90;;;;;;926963;152;27407;-75
2023/05/23 04:12:05;;;;;;;14.93;13.62;;;18.00;99.90;;;;;;926321;152;27351;-74
2023/05/23 04:14:32;;;;;;;14.60;13.22;;;18.00;99.90;;;;;;926389;152;27303;-75
2023/05/23 04:16:59;;;;;;;15.23;13.65;;;18.00;99.90;;;;;;934654;150;27305;-75
2023/05/23 04:19:24;;;;;;;14.85;13.45;;;18.00;99.90;;;;;;934804;150;27351;-75
2023/05/23 04:21:51;;;;;;;14.20;12.63;;;18.00;99.90;;;;;;912213;153;27402;-75
2023/05/23 04:24:17;;;;;;;15.05;13.65;;;18.00;99.90;;;;;;926616;152;27422;-75
2023/05/23 04:26:44;;;;;;;14.87;13.58;;;18.00;99.90;;;;;;948582;147;27349;-75
2023/05/23 04:29:11;;;;;;;14.73;13.43;;;18.00;99.90;;;;;;951683;148;27353;-75
2023/05/23 04:31:37;;;;;;;14.58;13.28;;;18.00;99.90;;;;;;935188;150;27398;-75
2023/05/23 04:34:04;;;;;;;14.23;12.82;;;18.00;99.90;;;;;;951617;148;27376;-75
2023/05/23 04:36:30;;;;;;;15.98;13.35;;;18.00;99.90;;;;;;944697;149;27418;-75
2023/05/23 04:38:57;;;;;;;14.25;12.98;;;18.10;99.90;;;;;;951921;148;27355;-75
2023/05/23 04:41:23;;;;;;;13.62;12.37;;;18.20;99.90;;;;;;951972;147;27444;-75
2023/05/23 04:43:53;;;;;;;12.55;11.45;;;18.20;99.90;;;;;;952144;148;27283;-75
2023/05/23 04:46:17;;;;;;;12.53;11.22;;;18.30;99.90;;;;;;951483;148;27343;-75
2023/05/23 04:48:43;;;;;;;12.47;11.25;;;18.40;99.90;;;;;;951503;148;27307;-75
2023/05/23 04:51:10;;;;;;;12.15;10.90;;;18.40;99.90;;;;;;945108;149;27466;-75
2023/05/23 04:53:37;;;;;;;11.97;10.50;;;18.50;99.90;;;;;;951853;148;27247;-75
2023/05/23 04:56:03;;;;;;;11.73;10.63;;;18.50;99.90;;;;;;951604;148;27327;-75
2023/05/23 04:58:30;;;;;;;10.50;9.53;;;18.60;99.90;;;;;;951607;148;27429;-75
2023/05/23 05:00:56;;;;;;;11.60;10.50;;;18.60;99.90;;;;;;952093;148;27354;-75
2023/05/23 05:03:23;;;;;;;10.80;9.85;;;18.70;99.90;;;;;;951550;148;27459;-75
2023/05/23 05:05:49;;;;;;;10.98;10.05;;;18.70;99.90;;;;;;935021;150;27421;-75
2023/05/23 05:08:18;;;;;;;11.22;10.23;;;18.70;99.90;;;;;;944496;149;27405;-75
2023/05/23 05:10:43;;;;;;;11.08;10.08;;;18.70;99.90;;;;;;940961;148;27350;-76
2023/05/23 05:13:09;;;;;;;11.45;10.45;;;18.70;99.90;;;;;;944238;149;27859;-75
2023/05/23 05:15:36;;;;;;;12.03;10.93;;;18.70;99.90;;;;;;935038;151;27324;-75
2023/05/23 05:18:02;;;;;;;11.97;10.88;;;18.60;99.90;;;;;;934393;151;27423;-75
2023/05/23 05:20:29;;;;;;;11.38;10.25;;;18.60;99.90;;;;;;948515;148;27304;-75
2023/05/23 05:22:56;;;;;;;12.23;11.03;;;18.60;99.90;;;;;;948220;151;27372;-75
2023/05/23 05:25:22;;;;;;;12.00;10.93;;;18.50;99.90;;;;;;948286;151;27347;-75
2023/05/23 05:27:49;;;;;;;12.10;11.00;;;18.50;99.90;;;;;;938768;151;27339;-75
2023/05/23 05:30:15;;;;;;;12.20;11.12;;;18.50;99.90;;;;;;937598;151;27291;-75
2023/05/23 05:32:45;;;;;;;12.88;11.70;;;18.50;99.90;;;;;;937353;150;27341;-75
2023/05/23 05:35:08;;;;;;;11.95;10.88;;;18.50;99.90;;;;;;937137;151;27388;-74
2023/05/23 05:37:35;;;;;;;13.03;11.83;;;18.50;99.90;;;;;;937072;152;27395;-75
2023/05/23 05:40:05;;;;;;;13.60;12.37;;;18.50;99.90;;;;;;937213;152;27701;-75
2023/05/23 05:42:28;;;;;;;13.43;12.23;;;18.60;99.90;;;;;;934367;150;27330;-74
2023/05/23 05:44:55;;;;;;;12.93;11.75;;;18.60;99.90;;;;;;918529;152;27383;-74
2023/05/23 05:47:21;;;;;;;13.22;12.03;;;18.60;99.90;;;;;;934471;150;27454;-75
2023/05/23 05:49:48;;;;;;;12.90;11.73;;;18.70;99.90;;;;;;919699;152;27441;-75
2023/05/23 05:52:15;;;;;;;13.95;12.55;;;18.70;99.90;;;;;;928045;150;27355;-75
2023/05/23 05:54:41;;;;;;;12.65;11.53;;;18.80;99.90;;;;;;918338;152;27483;-74
2023/05/23 05:57:08;;;;;;;13.00;11.90;;;18.80;99.90;;;;;;919823;152;27397;-75
2023/05/23 05:59:34;;;;;;;13.62;12.53;;;18.80;99.90;;;;;;911709;152;27347;-75
2023/05/23 06:02:01;;;;;;;13.90;12.55;;;18.90;99.90;;;;;;935058;149;27322;-74
2023/05/23 06:04:28;;;;;;;12.75;11.65;;;19.00;99.90;;;;;;935310;149;27342;-75
2023/05/23 06:06:54;;;;;;;13.62;12.43;;;19.00;99.90;;;;;;935672;149;27373;-75
2023/05/23 06:09:21;;;;;;;13.65;12.37;;;19.10;99.90;;;;;;935026;149;27471;-74
2023/05/23 06:11:48;;;;;;;13.65;12.28;;;19.10;99.90;;;;;;934398;150;27337;-74
2023/05/23 06:14:14;;;;;;;14.50;13.20;;;19.10;99.90;;;;;;933042;149;27355;-74
2023/05/23 06:16:41;;;;;;;14.45;13.18;;;19.10;99.90;;;;;;934320;149;27344;-74
2023/05/23 06:19:07;;;;;;;13.58;12.37;;;19.20;99.90;;;;;;918161;152;27395;-74
2023/05/23 06:21:35;;;;;;;12.85;11.65;;;19.20;99.90;;;;;;934990;149;27406;-74
2023/05/23 06:24:00;;;;;;;12.88;11.78;;;19.20;99.90;;;;;;928161;150;27326;-74
2023/05/23 06:26:27;;;;;;;12.93;11.83;;;19.20;99.80;;;;;;929980;151;27318;-75
2023/05/23 06:28:54;;;;;;;12.68;11.57;;;19.20;99.40;;;;;;929693;151;27496;-75
2023/05/23 06:31:20;;;;;;;11.80;10.85;;;19.20;99.20;;;;;;930122;151;27478;-75
2023/05/23 06:33:47;;;;;;;13.00;11.90;;;19.10;99.20;;;;;;930266;151;27346;-75
2023/05/23 06:36:13;;;;;;;12.98;11.68;;;19.20;99.60;;;;;;930439;151;27427;-75
2023/05/23 06:38:40;;;;;;;12.80;11.68;;;19.20;99.70;;;;;;935454;149;27451;-75
2023/05/23 06:41:06;;;;;;;12.43;11.22;;;19.20;99.90;;;;;;935114;150;27359;-75
2023/05/23 06:43:33;;;;;;;11.80;10.72;;;19.30;99.90;;;;;;932671;149;27245;-75
2023/05/23 06:46:00;;;;;;;10.80;10.00;;;19.40;99.90;;;;;;911745;153;27457;-75
2023/05/23 06:48:26;;;;;;;11.30;10.40;;;19.50;99.90;;;;;;927695;152;27439;-75
2023/05/23 06:50:53;;;;;;;10.48;9.68;;;19.60;99.90;;;;;;934999;149;27381;-75
2023/05/23 06:53:19;;;;;;;10.28;9.48;;;19.70;99.90;;;;;;911280;152;27352;-75
2023/05/23 06:55:46;;;;;;;10.03;9.23;;;19.80;99.90;;;;;;917738;152;27338;-75
2023/05/23 06:58:13;;;;;;;9.60;8.83;;;20.00;99.90;;;;;;918429;152;27333;-75
2023/05/23 07:00:39;;;;;;;8.60;7.90;;;20.20;99.80;;;;;;935023;149;27467;-75
2023/05/23 07:03:06;;;;;;;8.95;8.15;;;20.30;99.10;;;;;;916282;152;27393;-74
2023/05/23 07:05:33;;;;;;;9.28;8.48;;;20.50;98.60;;;;;;920075;152;27351;-75
2023/05/23 07:07:59;;;;;;;9.53;8.73;;;20.60;97.80;;;;;;912231;153;27348;-75
2023/05/23 07:10:26;;;;;;;8.43;7.62;;;20.70;97.50;;;;;;918029;153;27516;-75
2023/05/23 07:12:52;;;;;;;7.92;7.33;;;20.80;96.70;;;;;;933924;149;27330;-75
2023/05/23 07:15:19;;;;;;;8.28;7.67;;;20.90;96.50;;;;;;911872;153;27441;-75
2023/05/23 07:17:45;;;;;;;6.67;6.10;;;21.10;97.90;;;;;;926606;152;27299;-75
2023/05/23 07:20:12;;;;;;;6.37;5.87;;;21.50;99.90;;;;;;912572;153;27513;-76
2023/05/23 07:22:39;;;;;;;5.78;5.37;;;22.10;99.90;;;;;;935075;149;27367;-76
2023/05/23 07:25:05;;;;;;;5.45;5.05;;;23.00;99.90;;;;;;934591;149;27402;-75
2023/05/23 07:27:32;;;;;;;4.80;4.50;;;24.10;99.90;;;;;;934529;148;27357;-76
2023/05/23 07:29:59;;;;;;;5.03;4.53;;;25.10;99.90;;;;;;932442;150;27351;-76
2023/05/23 07:32:25;;;;;;;5.10;4.80;;;26.10;97.30;;;;;;932778;150;27369;-76
2023/05/23 07:34:52;;;;;;;5.08;4.67;;;26.90;93.10;;;;;;933146;150;27360;-75
2023/05/23 07:37:18;;;;;;;5.12;4.70;;;27.50;89.00;;;;;;932895;150;27297;-76
2023/05/23 07:39:45;;;;;;;5.33;4.92;;;28.00;83.30;;;;;;932694;150;27316;-75
2023/05/23 07:42:11;;;;;;;4.92;4.62;;;28.30;78.70;;;;;;931983;150;27346;-75
2023/05/23 07:44:38;;;;;;;4.58;4.28;;;28.50;75.70;;;;;;931915;150;27488;-75
2023/05/23 07:47:05;;;;;;;4.00;3.80;;;28.50;72.90;;;;;;932277;150;27368;-75
2023/05/23 07:49:31;;;;;;;3.98;3.67;;;28.50;71.10;;;;;;932752;150;27318;-75
2023/05/23 07:51:58;;;;;;;4.20;4.00;;;28.40;69.50;;;;;;932801;150;27329;-75
2023/05/23 07:54:24;;;;;;;4.40;4.10;;;28.20;68.20;;;;;;932848;150;27381;-75
2023/05/23 07:56:51;;;;;;;4.58;4.22;;;28.00;67.90;;;;;;933679;150;27756;-75
2023/05/23 07:59:18;;;;;;;3.95;3.65;;;27.60;66.40;;;;;;933102;150;27403;-75
2023/05/23 08:01:44;;;;;;;4.50;4.20;;;27.30;66.30;;;;;;932778;150;27306;-75
2023/05/23 08:04:11;;;;;;;4.40;4.10;;;27.00;66.30;;;;;;933148;150;27302;-74
2023/05/23 08:06:39;;;;;;;4.03;3.77;;;26.60;66.20;;;;;;932713;150;27498;-75
2023/05/23 08:09:05;;;;;;;3.80;3.50;;;26.30;66.50;;;;;;932482;150;27361;-75
2023/05/23 08:11:31;;;;;;;4.00;3.70;;;26.00;67.00;;;;;;932575;150;27357;-75
2023/05/23 08:13:58;;;;;;;4.50;4.10;;;25.80;67.70;;;;;;933184;150;27294;-75
2023/05/23 08:16:24;;;;;;;3.22;3.02;;;25.60;68.20;;;;;;932859;150;27469;-75
2023/05/23 08:18:50;;;;;;;3.40;3.20;;;25.50;69.40;;;;;;932858;150;27317;-75
2023/05/23 08:21:17;;;;;;;3.42;3.17;;;25.60;71.00;;;;;;932986;150;27294;-75
2023/05/23 08:23:43;;;;;;;3.45;3.17;;;25.90;72.80;;;;;;933103;150;27378;-75
2023/05/23 08:26:10;;;;;;;2.80;2.60;;;26.20;73.90;;;;;;933255;150;27464;-74
2023/05/23 08:28:37;;;;;;;2.92;2.72;;;26.70;73.20;;;;;;938321;148;27488;-75
2023/05/23 08:31:03;;;;;;;3.20;3.00;;;27.00;70.70;;;;;;930373;151;27291;-75
2023/05/23 08:33:30;;;;;;;3.00;2.80;;;27.30;68.90;;;;;;948190;148;27321;-75
2023/05/23 08:35:56;;;;;;;2.83;2.65;;;27.40;67.30;;;;;;929312;151;27428;-74
2023/05/23 08:38:23;;;;;;;2.87;2.67;;;27.40;65.70;;;;;;929343;151;27371;-75
2023/05/23 08:40:51;;;;;;;3.17;2.98;;;27.40;64.60;;;;;;947718;148;27337;-74
2023/05/23 08:43:16;;;;;;;2.70;2.50;;;27.20;63.80;;;;;;931216;151;27389;-75
2023/05/23 08:45:43;;;;;;;3.00;2.80;;;27.00;63.70;;;;;;931474;151;27457;-74
2023/05/23 08:48:10;;;;;;;2.80;2.60;;;26.70;63.90;;;;;;946952;148;27352;-75
2023/05/23 08:50:36;;;;;;;2.95;2.75;;;26.50;63.70;;;;;;931363;151;27380;-75
2023/05/23 08:53:03;;;;;;;3.08;2.87;;;26.30;63.60;;;;;;927957;151;27354;-74
2023/05/23 08:55:29;;;;;;;3.22;2.75;;;26.10;63.90;;;;;;931723;151;27361;-75
2023/05/23 08:57:56;;;;;;;2.95;2.75;;;25.90;64.30;;;;;;928310;152;27312;-75
2023/05/23 09:00:23;;;;;;;2.92;2.72;;;25.80;64.40;;;;;;929901;151;27387;-75
2023/05/23 09:02:50;;;;;;;2.90;2.70;;;25.70;64.80;;;;;;934953;149;27405;-75
2023/05/23 09:05:15;;;;;;;3.00;2.80;;;25.60;65.20;;;;;;927647;152;27396;-75
2023/05/23 09:07:42;;;;;;;2.52;2.42;;;25.50;65.50;;;;;;928374;152;27479;-74
2023/05/23 09:10:09;;;;;;;2.33;2.22;;;25.50;65.80;;;;;;928075;152;27423;-75
2023/05/23 09:12:38;;;;;;;3.10;2.80;;;25.50;65.70;;;;;;946012;151;27436;-74
2023/05/23 09:15:04;;;;;;;2.40;2.30;;;25.50;65.20;;;;;;945743;151;27277;-75
2023/05/23 09:17:32;;;;;;;2.67;2.47;;;25.40;64.50;;;;;;946565;150;27341;-74
2023/05/23 09:19:57;;;;;;;2.27;2.08;;;25.30;63.90;;;;;;946142;151;27480;-75
2023/05/23 09:22:25;;;;;;;2.17;2.08;;;25.20;63.50;;;;;;945064;151;27317;-74
2023/05/23 09:24:51;;;;;;;2.17;2.08;;;24.90;63.60;;;;;;946906;148;27390;-75
2023/05/23 09:27:17;;;;;;;2.15;2.05;;;24.70;64.10;;;;;;926543;152;27356;-74
2023/05/23 09:29:46;;;;;;;2.47;2.30;;;24.60;64.60;;;;;;940206;149;27468;-74
2023/05/23 09:32:11;;;;;;;2.10;2.00;;;24.50;65.40;;;;;;918012;152;27500;-75
2023/05/23 09:34:37;;;;;;;3.17;2.20;;;24.60;66.70;;;;;;911512;153;27306;-74
2023/05/23 09:37:04;;;;;;;2.40;2.20;;;24.70;67.60;;;;;;931899;149;27311;-75
2023/05/23 09:39:30;;;;;;;2.20;2.00;;;24.90;67.90;;;;;;935158;149;27438;-75
2023/05/23 09:41:57;;;;;;;2.42;2.10;;;25.10;67.60;;;;;;913335;152;27285;-74
2023/05/23 09:44:23;;;;;;;2.45;2.25;;;25.40;67.60;;;;;;934336;149;27310;-74
2023/05/23 09:46:53;;;;;;;2.08;1.98;;;25.50;65.80;;;;;;935106;149;27428;-74
2023/05/23 09:49:17;;;;;;;2.30;2.15;;;25.70;64.80;;;;;;934111;149;27516;-74
2023/05/23 09:51:43;;;;;;;2.62;2.42;;;25.60;63.90;;;;;;911352;152;27372;-74
2023/05/23 09:54:10;;;;;;;2.20;2.00;;;25.60;63.10;;;;;;934581;149;27300;-74
2023/05/23 09:56:37;;;;;;;2.00;1.90;;;25.50;62.80;;;;;;934889;149;27342;-74
2023/05/23 09:59:03;;;;;;;2.05;1.80;;;25.30;62.60;;;;;;922383;150;27421;-74
2023/05/23 10:01:30;;;;;;;2.10;2.00;;;25.10;62.60;;;;;;932573;149;27338;-75
2023/05/23 10:03:57;;;;;;;2.12;2.02;;;24.90;63.00;;;;;;935066;149;27318;-74
2023/05/23 10:06:26;;;;;;;1.98;1.87;;;24.80;63.60;;;;;;911875;153;27491;-74
2023/05/23 10:09:01;;;;;;;2.00;1.90;;;24.60;63.70;;;;;;927296;152;27308;-74
2023/05/23 10:11:33;;;;;;;2.27;2.08;;;24.50;64.00;;;;;;926865;152;27304;-74
2023/05/23 10:14:03;;;;;;;2.42;2.10;;;24.30;63.90;;;;;;926845;152;27509;-74
2023/05/23 10:16:53;;;;;;;2.12;2.02;;;24.20;63.90;;;;;;933368;149;27362;-75
2023/05/23 10:19:35;;;;;;;2.80;2.20;;;24.10;63.90;;;;;;917050;152;27477;-74
2023/05/23 10:22:01;;;;;;;1.82;1.72;;;23.90;63.90;;;;;;912517;153;27355;-75
2023/05/23 10:24:28;;;;;;;1.90;1.80;;;23.70;64.20;;;;;;911289;152;27361;-75
2023/05/23 10:26:54;;;;;;;2.83;2.02;;;23.60;64.80;;;;;;917412;152;27309;-74
2023/05/23 10:29:21;;;;;;;2.30;2.20;;;23.50;65.30;;;;;;934295;149;27573;-74
2023/05/23 10:31:48;;;;;;;2.50;2.30;;;23.50;65.70;;;;;;918121;152;27464;-74
2023/05/23 10:34:17;;;;;;;2.50;2.30;;;23.40;65.80;;;;;;911899;153;27419;-74
2023/05/23 10:36:43;;;;;;;1.95;1.85;;;23.40;65.90;;;;;;927085;152;27354;-74
2023/05/23 10:39:16;;;;;;;2.15;2.05;;;23.40;65.90;;;;;;933385;149;27451;-74
2023/05/23 10:41:45;;;;;;;2.10;1.90;;;23.40;65.80;;;;;;917734;152;27345;-74
2023/05/23 10:44:24;;;;;;;2.22;2.12;;;23.30;65.90;;;;;;917616;152;27383;-74
2023/05/23 10:46:52;;;;;;;2.05;1.95;;;23.30;66.20;;;;;;934368;149;27439;-74
2023/05/23 10:49:17;;;;;;;2.00;1.90;;;23.30;66.30;;;;;;935090;149;27374;-75
2023/05/23 10:51:44;;;;;;;1.92;1.82;;;23.30;66.30;;;;;;918109;152;27437;-74
2023/05/23 10:54:11;;;;;;;2.27;2.08;;;23.30;66.10;;;;;;911227;153;27427;-74
2023/05/23 10:56:37;;;;;;;1.87;1.77;;;23.30;66.00;;;;;;927093;152;27461;-75
2023/05/23 10:59:03;;;;;;;2.22;2.12;;;23.20;65.80;;;;;;926921;152;27480;-74
2023/05/23 11:01:30;;;;;;;2.22;2.02;;;23.20;65.80;;;;;;919501;152;27472;-74
2023/05/23 11:03:57;;;;;;;2.50;2.30;;;23.20;65.80;;;;;;934244;149;27416;-74
2023/05/23 11:06:39;;;;;;;2.17;1.90;;;23.20;66.00;;;;;;918911;152;27331;-74
2023/05/23 11:09:20;;;;;;;2.02;1.82;;;23.20;66.40;;;;;;934973;149;27426;-75
2023/05/23 11:11:58;;;;;;;2.10;2.00;;;23.20;66.90;;;;;;917372;152;27486;-74
2023/05/23 11:14:31;;;;;;;1.90;1.80;;;23.30;67.20;;;;;;933657;149;27430;-74
2023/05/23 11:16:58;;;;;;;2.40;2.30;;;23.40;67.20;;;;;;918941;152;27445;-74
2023/05/23 11:19:26;;;;;;;1.72;1.62;;;23.50;67.00;;;;;;935123;149;27680;-75
2023/05/23 11:22:04;;;;;;;2.05;1.95;;;23.70;66.70;;;;;;919060;152;27381;-75
2023/05/23 11:24:50;;;;;;;1.65;1.57;;;23.80;65.90;;;;;;934765;149;27710;-75
2023/05/23 11:27:19;;;;;;;1.90;1.80;;;23.90;65.70;;;;;;918358;152;27340;-74
2023/05/23 11:29:43;;;;;;;2.00;1.77;;;24.00;65.70;;;;;;933680;150;27338;-75
2023/05/23 11:32:11;;;;;;;3.72;2.05;;;24.10;65.30;;;;;;911572;152;27396;-74
2023/05/23 11:34:37;;;;;;;1.82;1.72;;;24.20;64.80;;;;;;934225;150;27335;-75
2023/05/23 11:37:03;;;;;;;2.17;1.57;;;24.20;64.30;;;;;;912231;153;27451;-74
2023/05/23 11:39:30;;;;;;;1.75;1.65;;;24.20;64.00;;;;;;934976;149;27455;-75
2023/05/23 11:42:02;;;;;;;1.65;1.55;;;24.30;63.80;;;;;;911839;152;27492;-75
2023/05/23 11:44:29;;;;;;;1.60;1.50;;;24.20;63.70;;;;;;911205;152;27386;-75
2023/05/23 11:47:05;;;;;;;2.75;1.70;;;24.30;63.70;;;;;;911560;153;27354;-74
2023/05/23 11:49:31;;;;;;;1.90;1.80;;;24.20;63.50;;;;;;912224;153;27509;-75
2023/05/23 11:51:58;;;;;;;2.17;1.80;;;24.20;63.60;;;;;;911771;153;27504;-75
2023/05/23 11:54:27;;;;;;;2.17;1.98;;;24.30;63.90;;;;;;933650;149;27335;-74
2023/05/23 11:56:53;;;;;;;2.35;2.15;;;24.30;63.80;;;;;;917939;152;27460;-74
2023/05/23 11:59:23;;;;;;;2.02;1.90;;;24.30;63.40;;;;;;911638;153;27426;-74
2023/05/23 12:01:49;;;;;;;2.37;2.08;;;24.30;63.20;;;;;;926972;152;27371;-75
2023/05/23 12:04:16;;;;;;;2.58;1.90;;;24.20;63.20;;;;;;912849;153;27369;-75
2023/05/23 12:06:42;;;;;;;2.12;1.80;;;24.20;63.40;;;;;;936735;149;27663;-74
2023/05/23 12:09:12;;;;;;;2.55;2.30;;;24.10;63.50;;;;;;934469;150;27406;-74
2023/05/23 12:11:39;;;;;;;1.90;1.80;;;24.10;63.50;;;;;;935061;149;27370;-74
2023/05/23 12:14:05;;;;;;;2.15;2.05;;;24.10;63.60;;;;;;935225;149;27393;-74
2023/05/23 12:16:32;;;;;;;1.72;1.62;;;24.10;63.70;;;;;;918690;152;27426;-74
2023/05/23 12:18:58;;;;;;;1.80;1.70;;;24.20;63.90;;;;;;922858;152;27412;-74
2023/05/23 12:21:25;;;;;;;1.92;1.70;;;24.30;64.00;;;;;;922025;152;27369;-75
2023/05/23 12:23:52;;;;;;;2.37;1.80;;;24.40;63.70;;;;;;918527;152;27418;-74
2023/05/23 12:26:18;;;;;;;1.80;1.70;;;24.50;63.50;;;;;;924226;152;27330;-75
2023/05/23 12:28:45;;;;;;;1.65;1.50;;;24.60;63.40;;;;;;922367;152;27911;-75
2023/05/23 12:31:17;;;;;;;1.92;1.82;;;24.70;63.20;;;;;;922725;151;27424;-74
2023/05/23 12:33:44;;;;;;;1.90;1.77;;;24.80;62.90;;;;;;947964;148;27360;-75
2023/05/23 12:36:13;;;;;;;1.70;1.60;;;24.90;62.80;;;;;;930508;151;27336;-75